createdAt,value
2017-10-17T00:00:02.153Z,11.70
2017-10-17T00:02:30.996Z,13.67
2017-10-17T00:04:59.078Z,13.60
2017-10-17T00:07:27.169Z,13.97
2017-10-17T00:09:56.076Z,12.83
2017-10-17T00:12:24.183Z,12.83
2017-10-17T00:14:52.342Z,12.97
2017-10-17T00:17:20.476Z,13.33
2017-10-17T00:19:49.343Z,13.53
2017-10-17T00:22:17.424Z,13.60
2017-10-17T00:24:49.116Z,12.10
2017-10-17T00:27:17.927Z,12.53
2017-10-17T00:29:46.018Z,12.90
2017-10-17T00:32:14.114Z,15.90
2017-10-17T00:34:43.107Z,14.03
2017-10-17T00:37:11.955Z,13.43
2017-10-17T00:39:40.058Z,13.93
2017-10-17T00:42:08.118Z,18.40
2017-10-17T00:44:36.241Z,13.17
2017-10-17T00:47:04.323Z,13.93
2017-10-17T00:49:32.418Z,13.70
2017-10-17T00:52:00.502Z,12.37
2017-10-17T00:54:28.640Z,12.37
2017-10-17T00:56:56.695Z,16.57
2017-10-17T00:59:33.614Z,14.37
2017-10-17T01:02:01.707Z,14.73
2017-10-17T01:04:29.812Z,14.37
2017-10-17T01:06:58.631Z,13.37
2017-10-17T01:09:26.728Z,12.93
2017-10-17T01:11:55.036Z,15.80
2017-10-17T01:14:23.083Z,12.77
2017-10-17T01:16:51.959Z,12.77
2017-10-17T01:19:20.021Z,12.27
2017-10-17T01:21:48.113Z,13.67
2017-10-17T01:24:16.183Z,14.40
2017-10-17T01:26:44.362Z,14.70
2017-10-17T01:29:15.362Z,16.10
2017-10-17T01:31:43.467Z,15.53
2017-10-17T01:34:12.314Z,13.60
2017-10-17T01:36:41.233Z,14.27
2017-10-17T01:39:09.308Z,16.30
2017-10-17T01:41:37.350Z,14.37
2017-10-17T01:44:17.201Z,12.87
2017-10-17T01:46:47.195Z,14.00
2017-10-17T01:49:27.856Z,17.57
2017-10-17T02:05:20.336Z,13.93
2017-10-17T02:07:48.409Z,15.07
2017-10-17T02:10:19.315Z,16.97
2017-10-17T02:12:47.414Z,16.30
2017-10-17T02:15:15.511Z,18.27
2017-10-17T02:17:46.133Z,15.97
2017-10-17T02:20:14.220Z,19.73
2017-10-17T02:22:43.930Z,22.07
2017-10-17T02:38:39.900Z,17.10
2017-10-17T02:41:07.995Z,19.27
2017-10-17T02:43:57.443Z,19.00
2017-10-17T02:46:25.514Z,18.50
2017-10-17T02:49:08.243Z,18.17
2017-10-17T02:51:36.685Z,17.10
2017-10-17T02:54:04.763Z,20.40
2017-10-17T02:56:32.898Z,17.60
2017-10-17T02:59:00.956Z,21.83
2017-10-17T03:01:34.217Z,16.70
2017-10-17T03:04:02.311Z,18.17
2017-10-17T03:06:31.163Z,17.73
2017-10-17T03:08:59.267Z,15.07
2017-10-17T03:11:28.104Z,14.87
2017-10-17T03:13:57.087Z,15.33
2017-10-17T03:16:25.277Z,15.10
2017-10-17T03:18:53.347Z,15.90
2017-10-17T03:21:22.384Z,17.30
2017-10-17T03:23:51.933Z,15.13
2017-10-17T03:26:20.006Z,14.60
2017-10-17T03:28:48.095Z,15.20
2017-10-17T03:31:16.188Z,15.63
2017-10-17T03:33:44.259Z,15.10
2017-10-17T03:36:45.510Z,15.97
2017-10-17T03:39:14.352Z,17.77
2017-10-17T03:41:43.152Z,15.30
2017-10-17T03:44:25.695Z,16.07
2017-10-17T03:46:53.855Z,14.93
2017-10-17T04:02:49.055Z,14.33
2017-10-17T04:05:19.784Z,14.77
2017-10-17T04:07:50.792Z,15.87
2017-10-17T04:10:22.525Z,15.97
2017-10-17T04:12:56.223Z,16.90
2017-10-17T04:15:24.287Z,16.13
2017-10-17T04:17:56.215Z,16.60
2017-10-17T04:20:30.827Z,14.93
2017-10-17T04:23:02.684Z,15.57
2017-10-17T04:25:42.438Z,15.70
2017-10-17T04:28:14.311Z,17.77
2017-10-17T04:30:46.117Z,18.80
2017-10-17T04:33:22.075Z,15.00
2017-10-17T04:35:51.119Z,14.87
2017-10-17T04:38:19.173Z,16.43
2017-10-17T04:40:49.210Z,17.03
2017-10-17T04:43:28.983Z,15.80
2017-10-17T04:46:04.648Z,16.73
2017-10-17T04:48:37.972Z,16.50
2017-10-17T04:51:15.985Z,17.40
2017-10-17T05:07:15.306Z,16.00
2017-10-17T05:09:55.168Z,16.60
2017-10-17T05:12:24.852Z,17.07
2017-10-17T05:14:53.047Z,18.27
2017-10-17T05:30:52.899Z,16.83
2017-10-17T05:33:30.631Z,17.00
2017-10-17T05:35:58.700Z,15.73
2017-10-17T05:38:27.551Z,18.47
2017-10-17T05:40:55.651Z,17.30
2017-10-17T05:43:26.148Z,18.90
2017-10-17T05:45:55.152Z,18.17
2017-10-17T05:48:23.253Z,18.13
2017-10-17T05:50:54.030Z,17.40
2017-10-17T05:53:22.139Z,16.57
2017-10-17T05:55:50.223Z,17.27
2017-10-17T05:58:18.280Z,18.73
2017-10-17T06:00:46.351Z,18.10
2017-10-17T06:03:14.572Z,17.93
2017-10-17T06:05:42.630Z,22.27
2017-10-17T06:08:10.719Z,16.47
2017-10-17T06:10:38.855Z,17.00
2017-10-17T06:13:07.714Z,20.07
2017-10-17T06:15:35.797Z,18.53
2017-10-17T06:18:03.937Z,17.40
2017-10-17T06:20:32.039Z,18.00
2017-10-17T06:23:00.983Z,23.30
2017-10-17T06:25:29.086Z,20.47
2017-10-17T06:27:57.980Z,17.47
2017-10-17T06:30:26.161Z,21.33
2017-10-17T06:32:55.778Z,18.50
2017-10-17T06:35:23.880Z,22.03
2017-10-17T06:37:51.952Z,20.47
2017-10-17T06:40:20.096Z,19.33
2017-10-17T06:42:48.234Z,20.43
2017-10-17T06:45:16.295Z,19.53
2017-10-17T06:47:45.262Z,20.03
2017-10-17T06:50:14.084Z,18.83
2017-10-17T06:52:42.174Z,19.83
2017-10-17T06:55:10.286Z,20.20
2017-10-17T06:57:39.212Z,18.83
2017-10-17T07:00:07.313Z,18.10
2017-10-17T07:02:35.403Z,19.03
2017-10-17T07:05:04.239Z,17.57
2017-10-17T07:07:32.407Z,20.67
2017-10-17T07:10:00.684Z,18.53
2017-10-17T07:12:28.769Z,24.23
2017-10-17T07:14:56.846Z,21.33
2017-10-17T07:17:24.922Z,19.47
2017-10-17T07:19:53.047Z,23.03
2017-10-17T07:22:21.867Z,18.70
2017-10-17T07:24:49.999Z,23.97
2017-10-17T07:27:18.042Z,22.23
2017-10-17T07:29:46.135Z,23.30
2017-10-17T07:32:14.608Z,21.83
2017-10-17T07:34:43.468Z,24.13
2017-10-17T07:37:11.579Z,23.07
2017-10-17T07:39:39.676Z,27.47
2017-10-17T07:42:07.754Z,23.20
2017-10-17T07:44:35.836Z,22.07
2017-10-17T07:47:03.916Z,23.33
2017-10-17T07:49:32.786Z,21.80
2017-10-17T07:52:00.867Z,27.20
2017-10-17T07:54:28.968Z,22.37
2017-10-17T07:56:57.824Z,30.37
2017-10-17T07:59:25.885Z,21.50
2017-10-17T08:01:53.984Z,23.80
2017-10-17T08:04:22.819Z,21.43
2017-10-17T08:06:50.941Z,23.27
2017-10-17T08:09:20.079Z,27.63
2017-10-17T08:11:48.187Z,26.27
2017-10-17T08:14:16.255Z,24.90
2017-10-17T08:16:44.332Z,22.23
2017-10-17T08:19:12.414Z,24.73
2017-10-17T08:21:40.487Z,19.70
2017-10-17T08:24:08.569Z,19.27
2017-10-17T08:26:36.656Z,23.47
2017-10-17T08:29:05.497Z,20.97
2017-10-17T08:31:33.579Z,21.73
2017-10-17T08:34:01.644Z,24.30
2017-10-17T08:36:29.723Z,23.30
2017-10-17T08:38:57.819Z,30.90
2017-10-17T08:41:25.889Z,26.67
2017-10-17T08:43:53.952Z,21.97
2017-10-17T08:46:22.066Z,21.23
2017-10-17T08:48:50.908Z,24.50
2017-10-17T08:51:19.000Z,28.77
2017-10-17T08:53:47.074Z,28.63
2017-10-17T08:56:15.973Z,25.70
2017-10-17T08:58:44.837Z,27.73
2017-10-17T09:01:12.921Z,33.93
2017-10-17T09:03:40.998Z,48.17
2017-10-17T09:06:09.101Z,37.00
2017-10-17T09:08:37.198Z,36.50
2017-10-17T09:11:05.269Z,33.40
2017-10-17T09:13:33.365Z,42.43
2017-10-17T09:16:01.436Z,33.00
2017-10-17T09:18:29.520Z,32.07
2017-10-17T09:20:57.619Z,34.43
2017-10-17T09:23:26.467Z,39.27
2017-10-17T09:25:54.556Z,33.03
2017-10-17T09:28:22.629Z,31.33
2017-10-17T09:30:51.481Z,37.63
2017-10-17T09:33:19.611Z,31.73
2017-10-17T09:35:47.667Z,36.53
2017-10-17T09:38:16.531Z,30.97
2017-10-17T09:40:44.617Z,34.03
2017-10-17T09:43:12.675Z,29.83
2017-10-17T09:45:40.787Z,32.30
2017-10-17T09:48:08.870Z,35.83
2017-10-17T09:50:36.950Z,33.27
2017-10-17T09:53:05.784Z,29.03
2017-10-17T09:55:33.887Z,29.37
2017-10-17T10:54:49.182Z,54.70
2017-10-17T10:57:17.303Z,45.63
2017-10-17T10:59:45.385Z,44.57
2017-10-17T11:02:14.249Z,42.03
2017-10-17T11:04:43.068Z,43.83
2017-10-17T11:07:11.159Z,37.87
2017-10-17T11:09:39.235Z,46.93
2017-10-17T11:12:07.327Z,37.10
2017-10-17T11:14:35.413Z,39.03
2017-10-17T11:17:03.539Z,39.70
2017-10-17T11:19:31.624Z,47.20
2017-10-17T11:21:59.708Z,43.13
2017-10-17T11:24:27.804Z,58.50
2017-10-17T11:26:55.875Z,42.63
2017-10-17T11:29:23.946Z,39.13
2017-10-17T11:31:52.799Z,41.63
2017-10-17T11:34:20.949Z,40.27
2017-10-17T11:36:49.811Z,40.83
2017-10-17T11:39:18.686Z,45.60
2017-10-17T11:41:58.561Z,37.35
2017-10-17T11:44:26.652Z,34.77
2017-10-17T11:46:54.739Z,39.20
2017-10-17T11:49:22.843Z,35.20
2017-10-17T11:51:50.927Z,45.30
2017-10-17T11:54:19.036Z,33.60
2017-10-17T11:56:47.143Z,34.33
2017-10-17T11:59:15.195Z,36.80
2017-10-17T12:01:43.301Z,36.90
2017-10-17T12:04:11.376Z,36.40
2017-10-17T12:06:39.786Z,38.63
2017-10-17T12:09:07.863Z,37.07
2017-10-17T12:11:35.976Z,35.93
2017-10-17T12:14:04.839Z,38.50
2017-10-17T12:16:32.949Z,34.00
2017-10-17T12:19:02.214Z,37.17
2017-10-17T12:21:31.303Z,37.60
2017-10-17T12:23:59.370Z,34.47
2017-10-17T12:26:27.447Z,39.93
2017-10-17T12:28:55.544Z,42.43
2017-10-17T12:31:24.404Z,48.13
2017-10-17T12:33:52.483Z,40.90
2017-10-17T12:36:20.561Z,44.80
2017-10-17T12:38:48.707Z,48.43
2017-10-17T12:41:16.764Z,43.73
2017-10-17T12:43:44.944Z,43.20
2017-10-17T12:46:13.000Z,40.77
2017-10-17T12:48:41.915Z,46.57
2017-10-17T12:51:10.008Z,39.83
2017-10-17T12:53:38.119Z,41.00
2017-10-17T12:56:06.219Z,42.40
2017-10-17T12:58:35.080Z,37.37
2017-10-17T13:01:03.151Z,36.97
2017-10-17T13:03:31.255Z,39.23
2017-10-17T13:05:59.359Z,39.20
2017-10-17T13:08:27.423Z,35.90
2017-10-17T13:10:55.498Z,42.60
2017-10-17T13:13:23.599Z,40.53
2017-10-17T13:15:51.710Z,41.53
2017-10-17T13:18:20.571Z,44.20
2017-10-17T13:20:49.422Z,37.20
2017-10-17T13:23:17.524Z,41.43
2017-10-17T13:25:46.370Z,38.30
2017-10-17T13:28:14.487Z,39.40
2017-10-17T13:30:44.091Z,40.60
2017-10-17T13:33:13.587Z,42.37
2017-10-17T13:35:41.716Z,37.63
2017-10-17T13:38:09.783Z,43.87
2017-10-17T13:40:37.882Z,43.93
2017-10-17T13:43:05.972Z,41.63
2017-10-17T13:45:35.550Z,38.67
2017-10-17T13:48:03.624Z,44.60
2017-10-17T13:50:31.739Z,39.50
2017-10-17T13:53:00.607Z,37.97
2017-10-17T13:55:28.688Z,40.50
2017-10-17T13:57:58.287Z,38.23
2017-10-17T14:00:26.355Z,43.37
2017-10-17T14:02:55.944Z,47.00
2017-10-17T14:05:24.009Z,44.17
2017-10-17T14:07:52.106Z,46.97
2017-10-17T14:10:20.160Z,44.80
2017-10-17T14:12:48.282Z,35.33
2017-10-17T14:15:16.452Z,38.47
2017-10-17T14:17:45.346Z,35.27
2017-10-17T14:20:13.435Z,40.73
2017-10-17T14:22:41.514Z,35.73
2017-10-17T14:25:09.600Z,36.40
2017-10-17T14:27:37.671Z,38.83
2017-10-17T14:30:05.940Z,46.90
2017-10-17T14:32:35.827Z,36.13
2017-10-17T14:40:54.005Z,43.50
2017-10-17T14:43:23.132Z,32.80
2017-10-17T14:45:56.449Z,35.53
2017-10-17T15:01:38.864Z,38.33
2017-10-17T15:04:11.131Z,34.77
2017-10-17T15:06:43.561Z,40.83
2017-10-17T15:09:17.273Z,45.33
2017-10-17T15:11:49.117Z,43.87
2017-10-17T15:14:33.753Z,41.60
2017-10-17T15:17:09.507Z,47.63
2017-10-17T15:19:55.785Z,44.97
2017-10-17T15:22:45.987Z,34.73
2017-10-17T15:25:16.328Z,37.93
2017-10-17T15:27:53.817Z,38.73
2017-10-17T15:30:29.493Z,40.83
2017-10-17T15:32:59.492Z,47.53
2017-10-17T15:35:31.564Z,41.87
2017-10-17T15:48:28.623Z,61.67
2017-10-17T15:50:59.528Z,41.47
2017-10-17T15:53:28.629Z,44.33
2017-10-17T15:55:56.940Z,42.67
2017-10-17T15:58:25.845Z,40.80
2017-10-17T16:00:54.109Z,45.67
2017-10-17T16:03:22.377Z,52.77
2017-10-17T16:05:52.827Z,43.03
2017-10-17T16:08:21.152Z,44.37
2017-10-17T16:10:50.348Z,43.90
2017-10-17T16:13:19.448Z,43.93
2017-10-17T16:15:48.554Z,46.80
2017-10-17T16:18:16.895Z,50.80
2017-10-17T16:20:45.272Z,44.37
2017-10-17T16:23:14.287Z,61.00
2017-10-17T16:25:43.624Z,43.00
2017-10-17T16:28:11.864Z,40.53
2017-10-17T16:30:42.124Z,47.10
2017-10-17T16:33:11.285Z,44.50
2017-10-17T16:35:39.560Z,46.40
2017-10-17T16:38:08.680Z,44.47
2017-10-17T16:40:38.364Z,47.27
2017-10-17T16:43:07.169Z,41.77
2017-10-17T16:45:35.583Z,51.87
2017-10-17T16:48:04.618Z,45.17
2017-10-17T16:50:34.581Z,50.53
2017-10-17T16:53:03.159Z,54.67
2017-10-17T16:55:31.277Z,42.00
2017-10-17T16:57:59.415Z,47.70
2017-10-17T17:00:27.764Z,50.03
2017-10-17T17:02:55.917Z,42.57
2017-10-17T17:05:23.995Z,48.87
2017-10-17T17:07:52.089Z,47.47
2017-10-17T17:10:20.164Z,50.83
2017-10-17T17:12:48.237Z,44.77
2017-10-17T17:15:16.356Z,56.67
2017-10-17T17:17:45.285Z,53.87
2017-10-17T17:20:13.370Z,49.37
2017-10-17T17:22:41.497Z,50.10
2017-10-17T17:25:09.573Z,48.37
2017-10-17T17:27:37.672Z,56.93
2017-10-17T17:30:05.846Z,54.77
2017-10-17T17:32:33.897Z,59.20
2017-10-17T17:35:01.996Z,49.73
2017-10-17T17:37:30.072Z,57.80
2017-10-17T17:39:58.184Z,57.37
2017-10-17T17:42:27.039Z,56.07
2017-10-17T17:44:55.131Z,54.83
2017-10-17T17:47:23.219Z,51.50
2017-10-17T17:49:52.504Z,57.07
2017-10-17T17:52:20.627Z,52.00
2017-10-17T17:54:48.714Z,59.60
2017-10-17T17:57:16.809Z,57.67
2017-10-17T17:59:45.686Z,53.50
2017-10-17T18:02:13.758Z,55.53
2017-10-17T18:04:42.651Z,53.03
2017-10-17T18:07:10.719Z,49.10
2017-10-17T18:09:38.816Z,49.80
2017-10-17T18:12:06.938Z,49.33
2017-10-17T18:14:35.041Z,52.77
2017-10-17T18:17:03.930Z,55.83
2017-10-17T18:19:32.006Z,50.20
2017-10-17T18:22:00.847Z,46.30
2017-10-17T18:24:28.962Z,51.90
2017-10-17T18:26:57.022Z,46.07
2017-10-17T18:29:25.114Z,59.23
2017-10-17T18:31:53.980Z,47.03
2017-10-17T18:34:22.085Z,51.47
2017-10-17T18:36:50.180Z,55.87
2017-10-17T18:39:18.259Z,54.77
2017-10-17T18:41:46.357Z,56.00
2017-10-17T18:44:14.495Z,49.50
2017-10-17T18:46:43.326Z,45.57
2017-10-17T18:49:11.436Z,48.80
2017-10-17T18:51:39.537Z,44.07
2017-10-17T18:54:08.363Z,53.07
2017-10-17T18:56:36.491Z,47.90
2017-10-17T18:59:05.347Z,51.00
2017-10-17T19:01:33.460Z,55.63
2017-10-17T19:04:01.536Z,50.43
2017-10-17T19:06:29.612Z,53.40
2017-10-17T19:08:57.689Z,50.93
2017-10-17T19:11:26.622Z,52.20
2017-10-17T19:13:54.676Z,53.47
2017-10-17T19:16:22.773Z,55.33
2017-10-17T19:18:51.627Z,50.97
2017-10-17T19:21:19.715Z,52.33
2017-10-17T19:23:47.790Z,50.13
2017-10-17T19:26:15.908Z,49.93
2017-10-17T19:28:43.999Z,52.50
2017-10-17T19:31:12.076Z,52.03
2017-10-17T19:33:40.229Z,52.07
2017-10-17T19:36:09.067Z,55.00
2017-10-17T19:38:37.185Z,59.23
2017-10-17T19:41:06.829Z,49.60
2017-10-17T19:43:34.979Z,47.77
2017-10-17T19:46:03.051Z,53.43
2017-10-17T19:48:31.906Z,50.27
2017-10-17T19:51:00.350Z,47.77
2017-10-17T19:53:28.453Z,46.63
2017-10-17T19:55:56.526Z,53.40
2017-10-17T19:58:24.625Z,53.73
2017-10-17T20:00:52.762Z,46.30
2017-10-17T20:03:20.869Z,48.37
2017-10-17T20:05:49.726Z,45.83
2017-10-17T20:08:17.786Z,50.50
2017-10-17T20:10:45.881Z,51.13
2017-10-17T20:13:13.951Z,51.57
2017-10-17T20:15:42.352Z,53.50
2017-10-17T20:18:10.392Z,50.00
2017-10-17T20:20:38.489Z,48.23
2017-10-17T20:23:06.587Z,49.00
2017-10-17T20:25:35.432Z,48.60
2017-10-17T20:28:03.524Z,53.67
2017-10-17T20:30:32.399Z,49.30
2017-10-17T20:33:00.720Z,62.50
2017-10-17T20:35:28.815Z,61.47
2017-10-17T20:37:56.883Z,55.80
2017-10-17T20:40:25.080Z,55.60
2017-10-17T20:42:53.152Z,59.40
2017-10-17T20:45:22.097Z,50.97
2017-10-17T20:47:50.189Z,58.77
2017-10-17T20:50:18.328Z,56.73
2017-10-17T20:52:47.154Z,55.90
2017-10-17T20:55:15.271Z,51.57
2017-10-17T20:57:43.330Z,46.70
2017-10-17T21:00:11.477Z,54.80
2017-10-17T21:02:39.531Z,51.13
2017-10-17T21:05:07.661Z,55.70
2017-10-17T21:20:36.544Z,48.60
2017-10-17T21:23:05.387Z,50.03
2017-10-17T21:25:33.485Z,47.83
2017-10-17T21:28:05.108Z,55.87
2017-10-17T21:30:33.929Z,44.80
2017-10-17T21:33:02.001Z,52.00
2017-10-17T21:35:30.095Z,51.60
2017-10-17T21:37:58.925Z,44.60
2017-10-17T21:40:27.008Z,40.40
2017-10-17T21:42:55.205Z,46.57
2017-10-17T21:45:24.247Z,47.70
2017-10-17T21:47:52.309Z,43.60
2017-10-17T21:50:21.166Z,57.17
2017-10-17T21:52:49.241Z,52.23
2017-10-17T21:55:17.343Z,49.30
2017-10-17T21:57:46.188Z,45.87
2017-10-17T22:00:14.299Z,51.33
2017-10-17T22:02:42.353Z,57.07
2017-10-17T22:05:10.467Z,54.10
2017-10-17T22:07:39.318Z,43.80
2017-10-17T22:10:07.431Z,46.80
2017-10-17T22:12:35.503Z,45.17
2017-10-17T22:15:03.598Z,42.90
2017-10-17T22:17:31.699Z,50.03
2017-10-17T22:20:00.556Z,45.70
2017-10-17T22:22:28.664Z,45.23
2017-10-17T22:24:56.775Z,48.13
2017-10-17T22:27:25.591Z,51.63
2017-10-17T22:29:53.688Z,51.23
2017-10-17T22:32:21.774Z,43.30
2017-10-17T22:34:49.843Z,46.43
2017-10-17T22:37:17.950Z,59.43
2017-10-17T22:39:46.023Z,43.90
2017-10-17T22:42:14.126Z,44.00
2017-10-17T22:44:42.181Z,43.23
2017-10-17T22:47:10.262Z,46.40
2017-10-17T22:49:38.334Z,45.40
2017-10-17T22:52:06.464Z,45.07
2017-10-17T22:54:35.298Z,45.43
2017-10-17T22:57:03.376Z,40.27
2017-10-17T22:59:31.446Z,41.23
2017-10-17T23:01:59.539Z,38.87
2017-10-17T23:04:28.412Z,38.37
2017-10-17T23:06:56.503Z,44.17
2017-10-17T23:09:25.352Z,45.73
2017-10-17T23:11:53.408Z,39.87
2017-10-17T23:14:21.503Z,44.23
2017-10-17T23:17:01.540Z,41.10
2017-10-17T23:19:41.736Z,40.40
2017-10-17T23:22:10.570Z,41.47
2017-10-17T23:24:38.680Z,37.90
2017-10-17T23:27:06.763Z,43.57
2017-10-17T23:29:34.865Z,42.13
2017-10-17T23:32:02.953Z,43.33
2017-10-17T23:34:31.040Z,39.90
2017-10-17T23:36:59.139Z,42.80
2017-10-17T23:39:27.203Z,39.97
2017-10-17T23:41:55.275Z,38.77
2017-10-17T23:44:23.334Z,38.73
2017-10-17T23:46:52.853Z,43.83
2017-10-17T23:49:21.952Z,36.40
2017-10-17T23:51:49.995Z,42.30
2017-10-17T23:54:18.114Z,42.03
2017-10-17T23:56:46.184Z,42.93
2017-10-17T23:59:14.257Z,45.80
